Hartford, Connecticut
Traffic Map
Current Weather Conditions
Hartford, Connecticut
Overcast
Overcast
72°
Feels Like: 72°
Wind Chill: 72° Ceiling: 700
Heat Index: 72° Visibility: 10mi
Dew Point: 67° Wind: 5mph
Humidity: 84% Direction: 140° (SE)
Pressure: 29.97in Gusts: 0mph
Raw Report DataKHFD 301553Z 14004KT 10SM BKN007 BKN013 OVC020 22/19 A2997 RMK AO2 SLP148 T02220194 $
Traffic Incident Summary
Active as of:
Severity:
Category:
InformationThere was an issue retrieving the traffic information for this location. Please try a different location or try again shortly.
Advertisements
Track Severe Weather on mobile